Time;durP1;ratioP1;P1;durP2;ratioP2;P2;SDS_P1;SDS_P2;PMS_P1;PMS_P2;Temp;Humidity;BMP_temperature;BMP_pressure;BME280_temperature;BME280_humidity;BME280_pressure;Samples;Min_cycle;Max_cycle;Signal;HPM_P1;HPM_P2
2023/09/28 00:02:28;;;;;;;7.53;3.58;;;;;;;;;;10369289;28;20030;-58
2023/09/28 00:07:28;;;;;;;9.25;3.13;;;;;;;;;;10369270;28;20069;-59
2023/09/28 00:12:29;;;;;;;12.43;2.92;;;;;;;;;;10368633;28;20025;-59
2023/09/28 00:17:32;;;;;;;7.05;3.25;;;;;;;;;;10368995;28;20028;-58
2023/09/28 00:22:32;;;;;;;10.93;3.33;;;;;;;;;;10368405;28;20033;-58
2023/09/28 00:27:33;;;;;;;8.00;3.00;;;;;;;;;;10369425;28;20041;-58
2023/09/28 00:32:34;;;;;;;7.05;3.25;;;;;;;;;;10368469;28;20038;-58
2023/09/28 00:37:34;;;;;;;7.22;2.58;;;;;;;;;;10368082;28;20034;-58
2023/09/28 00:42:35;;;;;;;9.43;3.20;;;;;;;;;;10368260;28;20030;-61
2023/09/28 00:47:39;;;;;;;5.45;3.08;;;;;;;;;;10368089;28;20617;-58
2023/09/28 00:52:57;;;;;;;4.53;2.78;;;;;;;;;;10368141;28;20062;-58
2023/09/28 00:58:04;;;;;;;8.32;3.15;;;;;;;;;;10367625;28;20397;-58
2023/09/28 01:03:10;;;;;;;4.72;3.03;;;;;;;;;;10375525;28;20536;-58
2023/09/28 01:08:22;;;;;;;4.38;2.83;;;;;;;;;;10375807;28;20288;-58
2023/09/28 01:13:24;;;;;;;4.57;2.60;;;;;;;;;;10375361;28;20552;-59
2023/09/28 01:18:24;;;;;;;10.32;3.15;;;;;;;;;;10376307;28;20109;-59
2023/09/28 01:23:26;;;;;;;5.35;3.05;;;;;;;;;;10374993;28;20030;-58
2023/09/28 01:28:27;;;;;;;4.70;2.80;;;;;;;;;;10375397;28;20156;-59
2023/09/28 01:33:29;;;;;;;7.65;3.00;;;;;;;;;;10374953;28;20462;-58
2023/09/28 01:38:42;;;;;;;33.13;2.83;;;;;;;;;;10373444;28;20394;-58
2023/09/28 01:43:43;;;;;;;6.35;2.42;;;;;;;;;;10373267;28;20034;-59
2023/09/28 01:48:44;;;;;;;6.93;3.00;;;;;;;;;;10372658;28;20050;-59
2023/09/28 01:53:44;;;;;;;3.95;2.75;;;;;;;;;;10374383;28;20030;-59
2023/09/28 01:58:45;;;;;;;3.40;2.55;;;;;;;;;;10374291;28;20029;-59
2023/09/28 02:03:45;;;;;;;3.63;2.78;;;;;;;;;;10373508;28;20367;-60
2023/09/28 02:08:46;;;;;;;4.97;3.03;;;;;;;;;;10373608;28;20425;-57
2023/09/28 02:13:46;;;;;;;4.13;2.88;;;;;;;;;;10372507;28;20026;-57
2023/09/28 02:18:47;;;;;;;6.15;2.90;;;;;;;;;;10373007;28;20022;-60
2023/09/28 02:23:48;;;;;;;9.07;2.95;;;;;;;;;;10372645;28;20037;-58
2023/09/28 02:28:48;;;;;;;4.32;2.67;;;;;;;;;;10372222;28;20363;-58
2023/09/28 02:33:50;;;;;;;3.85;2.33;;;;;;;;;;10372546;28;20092;-58
2023/09/28 02:38:50;;;;;;;6.28;2.45;;;;;;;;;;10372650;28;20033;-58
2023/09/28 02:43:51;;;;;;;4.22;2.63;;;;;;;;;;10372374;28;20367;-58
2023/09/28 02:48:52;;;;;;;4.57;2.50;;;;;;;;;;10372251;28;20054;-58
2023/09/28 02:53:52;;;;;;;3.75;2.55;;;;;;;;;;10371531;28;20481;-58
2023/09/28 02:58:53;;;;;;;3.58;2.65;;;;;;;;;;10371962;28;20029;-58
2023/09/28 03:03:54;;;;;;;4.35;2.63;;;;;;;;;;10371606;28;20033;-58
2023/09/28 03:08:55;;;;;;;3.15;2.60;;;;;;;;;;10370926;28;20030;-58
2023/09/28 03:13:56;;;;;;;4.68;2.42;;;;;;;;;;10352869;23;20182;-51
2023/09/28 03:18:57;;;;;;;3.42;2.25;;;;;;;;;;10335367;28;20026;-55
2023/09/28 03:23:59;;;;;;;6.05;2.28;;;;;;;;;;10329416;28;20129;-56
2023/09/28 03:28:59;;;;;;;2.42;2.22;;;;;;;;;;10329678;28;20022;-56
2023/09/28 03:34:00;;;;;;;4.65;2.72;;;;;;;;;;10329332;28;20048;-59
2023/09/28 03:39:01;;;;;;;2.67;2.47;;;;;;;;;;10329332;28;20216;-54
2023/09/28 03:44:01;;;;;;;2.83;2.60;;;;;;;;;;10329994;28;20026;-53
2023/09/28 03:49:02;;;;;;;2.33;2.13;;;;;;;;;;10328886;28;20026;-55
2023/09/28 03:54:02;;;;;;;3.38;2.40;;;;;;;;;;10328711;28;20034;-52
2023/09/28 03:59:03;;;;;;;3.58;2.53;;;;;;;;;;10328595;28;20026;-53
2023/09/28 04:04:05;;;;;;;3.55;2.17;;;;;;;;;;10328233;28;20177;-55
2023/09/28 04:09:07;;;;;;;2.80;2.53;;;;;;;;;;10328450;28;20049;-55
2023/09/28 04:14:08;;;;;;;3.35;2.33;;;;;;;;;;10327927;28;20046;-56
2023/09/28 04:19:09;;;;;;;5.05;2.40;;;;;;;;;;10328314;28;20030;-57
2023/09/28 04:24:09;;;;;;;3.42;2.40;;;;;;;;;;10328172;28;20080;-53
2023/09/28 04:29:10;;;;;;;2.55;2.10;;;;;;;;;;10327623;28;20037;-55
2023/09/28 04:34:13;;;;;;;6.32;2.38;;;;;;;;;;10327190;28;20026;-55
2023/09/28 04:39:13;;;;;;;3.63;2.30;;;;;;;;;;10327382;28;20096;-55
2023/09/28 04:44:14;;;;;;;4.18;2.53;;;;;;;;;;10327450;28;20030;-58
2023/09/28 04:49:14;;;;;;;2.70;2.30;;;;;;;;;;10326744;28;20034;-57
2023/09/28 04:54:15;;;;;;;2.90;2.28;;;;;;;;;;10326979;28;20409;-58
2023/09/28 04:59:15;;;;;;;3.17;2.65;;;;;;;;;;10326723;28;20428;-58
2023/09/28 05:04:16;;;;;;;2.50;2.30;;;;;;;;;;10326279;28;20386;-56
2023/09/28 05:09:18;;;;;;;3.13;2.60;;;;;;;;;;10326848;28;20386;-55
2023/09/28 05:14:23;;;;;;;5.85;2.33;;;;;;;;;;10326571;28;20058;-51
2023/09/28 05:19:25;;;;;;;5.25;2.50;;;;;;;;;;10326091;28;20058;-52
2023/09/28 05:24:26;;;;;;;2.72;2.30;;;;;;;;;;10326509;28;20371;-51
2023/09/28 05:29:29;;;;;;;3.22;2.35;;;;;;;;;;10326953;28;20027;-56
2023/09/28 05:34:30;;;;;;;5.65;2.40;;;;;;;;;;10326242;28;20026;-61
2023/09/28 05:39:31;;;;;;;4.15;2.25;;;;;;;;;;10325788;28;20022;-60
2023/09/28 05:44:32;;;;;;;14.07;2.42;;;;;;;;;;10324915;28;20026;-53
2023/09/28 05:49:32;;;;;;;6.03;2.70;;;;;;;;;;10332451;28;20026;-58
2023/09/28 05:54:33;;;;;;;6.20;2.75;;;;;;;;;;10332805;28;20033;-57
2023/09/28 05:59:33;;;;;;;4.07;2.58;;;;;;;;;;10333245;28;20505;-56
2023/09/28 06:04:34;;;;;;;3.92;2.63;;;;;;;;;;10331965;28;20031;-61
2023/09/28 06:09:34;;;;;;;7.10;3.13;;;;;;;;;;10332680;28;20105;-60
2023/09/28 06:14:35;;;;;;;13.63;3.22;;;;;;;;;;10333431;28;20433;-56
2023/09/28 06:19:37;;;;;;;11.25;3.10;;;;;;;;;;10330507;28;20394;-56
2023/09/28 06:24:38;;;;;;;7.30;2.55;;;;;;;;;;10330781;28;20035;-53
2023/09/28 06:29:39;;;;;;;12.32;3.00;;;;;;;;;;10331930;28;20367;-50
2023/09/28 06:34:39;;;;;;;3.30;2.63;;;;;;;;;;10332400;28;20035;-58
2023/09/28 06:39:40;;;;;;;11.32;3.50;;;;;;;;;;10331619;28;20104;-60
2023/09/28 06:44:40;;;;;;;7.13;3.05;;;;;;;;;;10331836;28;20026;-53
2023/09/28 06:49:41;;;;;;;6.47;2.88;;;;;;;;;;10331112;28;20027;-59
2023/09/28 06:54:42;;;;;;;6.40;2.95;;;;;;;;;;10331081;28;20038;-58
2023/09/28 06:59:42;;;;;;;5.85;3.10;;;;;;;;;;10331025;28;20057;-56
2023/09/28 07:04:43;;;;;;;7.57;3.00;;;;;;;;;;10330493;28;20394;-58
2023/09/28 07:09:44;;;;;;;9.55;3.13;;;;;;;;;;10330604;28;20375;-58
2023/09/28 07:14:44;;;;;;;8.60;2.85;;;;;;;;;;10330740;28;20029;-59
2023/09/28 07:19:45;;;;;;;11.15;3.53;;;;;;;;;;10330414;28;20467;-56
2023/09/28 07:24:45;;;;;;;7.40;2.92;;;;;;;;;;10330365;28;20498;-60
2023/09/28 07:29:46;;;;;;;5.15;2.70;;;;;;;;;;10329502;28;20375;-59
2023/09/28 07:34:48;;;;;;;8.77;3.30;;;;;;;;;;10329997;28;20457;-61
2023/09/28 07:39:49;;;;;;;5.30;3.08;;;;;;;;;;10329605;28;20034;-58
2023/09/28 07:44:54;;;;;;;6.40;3.13;;;;;;;;;;10328994;28;20505;-60
2023/09/28 07:49:54;;;;;;;7.70;2.88;;;;;;;;;;10328684;28;20410;-58
2023/09/28 07:54:56;;;;;;;7.15;2.70;;;;;;;;;;10328836;28;20031;-61
2023/09/28 07:59:57;;;;;;;6.63;2.92;;;;;;;;;;10328560;28;20030;-60
2023/09/28 08:04:57;;;;;;;4.25;3.10;;;;;;;;;;10328184;28;20038;-60
2023/09/28 08:09:58;;;;;;;8.65;3.13;;;;;;;;;;10327280;28;20030;-52
2023/09/28 08:14:58;;;;;;;4.88;3.05;;;;;;;;;;10328016;28;20033;-60
2023/09/28 08:19:59;;;;;;;7.97;2.85;;;;;;;;;;10328172;28;20026;-53
2023/09/28 08:25:00;;;;;;;5.93;2.83;;;;;;;;;;10328106;28;20532;-56
2023/09/28 08:30:02;;;;;;;9.48;3.05;;;;;;;;;;10327543;28;20057;-59
2023/09/28 08:35:04;;;;;;;6.40;2.80;;;;;;;;;;10327968;28;20382;-60
2023/09/28 08:40:06;;;;;;;6.38;3.10;;;;;;;;;;10327748;28;20099;-55
2023/09/28 08:45:10;;;;;;;5.82;2.70;;;;;;;;;;10327765;28;20058;-60
2023/09/28 08:50:14;;;;;;;7.05;2.92;;;;;;;;;;10326986;28;20026;-60
2023/09/28 08:55:15;;;;;;;7.45;3.47;;;;;;;;;;10327092;28;20061;-60
2023/09/28 09:00:22;;;;;;;6.40;3.10;;;;;;;;;;10327251;28;20038;-56
2023/09/28 09:05:23;;;;;;;6.70;2.70;;;;;;;;;;10341092;28;20508;-61
2023/09/28 09:10:27;;;;;;;18.58;4.00;;;;;;;;;;10327057;28;20053;-57
2023/09/28 09:15:28;;;;;;;9.63;4.07;;;;;;;;;;10327224;28;20026;-58
2023/09/28 09:20:29;;;;;;;6.15;3.30;;;;;;;;;;10326818;28;20471;-58
2023/09/28 09:25:47;;;;;;;9.52;3.35;;;;;;;;;;10334884;28;20382;-54
2023/09/28 09:30:52;;;;;;;8.88;3.20;;;;;;;;;;10334825;28;20035;-57
2023/09/28 09:35:53;;;;;;;5.03;3.22;;;;;;;;;;10334634;28;20037;-56
2023/09/28 09:41:01;;;;;;;6.30;3.65;;;;;;;;;;10333959;28;20045;-60
2023/09/28 09:46:06;;;;;;;8.98;3.45;;;;;;;;;;10333770;28;20030;-60
2023/09/28 09:51:16;;;;;;;12.52;3.70;;;;;;;;;;10334603;28;20113;-58
2023/09/28 09:56:16;;;;;;;8.30;3.72;;;;;;;;;;10333449;28;20030;-59
2023/09/28 10:01:18;;;;;;;5.57;3.70;;;;;;;;;;10333039;28;20030;-60
2023/09/28 10:06:21;;;;;;;13.30;4.40;;;;;;;;;;10333536;28;20034;-60
2023/09/28 10:11:24;;;;;;;10.98;4.25;;;;;;;;;;10332837;28;20051;-61
2023/09/28 10:16:26;;;;;;;9.85;4.05;;;;;;;;;;10332534;28;20448;-60
2023/09/28 10:21:26;;;;;;;6.97;4.22;;;;;;;;;;10347388;28;20019;-60
2023/09/28 10:26:31;;;;;;;15.63;4.72;;;;;;;;;;10332848;28;20474;-59
2023/09/28 10:31:40;;;;;;;11.02;3.85;;;;;;;;;;10332203;28;20054;-52
2023/09/28 10:36:41;;;;;;;11.27;4.55;;;;;;;;;;10331929;28;20052;-59
2023/09/28 10:41:53;;;;;;;6.53;4.35;;;;;;;;;;10331717;28;20044;-58
2023/09/28 10:46:54;;;;;;;7.38;4.25;;;;;;;;;;10331507;28;20427;-58
2023/09/28 10:51:57;;;;;;;7.82;4.20;;;;;;;;;;10331356;28;20037;-58
2023/09/28 10:56:58;;;;;;;12.45;4.30;;;;;;;;;;10331824;28;20041;-53
2023/09/28 11:02:00;;;;;;;7.25;4.28;;;;;;;;;;10330873;28;20092;-55
2023/09/28 11:07:01;;;;;;;13.95;4.63;;;;;;;;;;10331220;28;20038;-58
2023/09/28 11:12:08;;;;;;;5.85;4.07;;;;;;;;;;10330259;28;20061;-60
2023/09/28 11:17:09;;;;;;;8.15;4.18;;;;;;;;;;10330321;28;20088;-60
2023/09/28 11:22:11;;;;;;;8.68;3.97;;;;;;;;;;10344989;28;20034;-60
2023/09/28 11:27:12;;;;;;;14.55;4.82;;;;;;;;;;10345277;28;20026;-52
2023/09/28 11:32:12;;;;;;;6.10;3.95;;;;;;;;;;10329659;28;20057;-60
2023/09/28 11:37:16;;;;;;;7.20;4.50;;;;;;;;;;10329869;28;20033;-54
2023/09/28 11:42:18;;;;;;;8.15;4.05;;;;;;;;;;10328347;28;20104;-59
2023/09/28 11:47:20;;;;;;;9.73;4.53;;;;;;;;;;10328478;28;20034;-58
2023/09/28 11:52:21;;;;;;;9.98;4.70;;;;;;;;;;10329044;28;20041;-60
2023/09/28 11:57:22;;;;;;;6.45;4.03;;;;;;;;;;10328771;28;20027;-60
2023/09/28 12:02:23;;;;;;;11.55;4.80;;;;;;;;;;10328696;28;20027;-61
2023/09/28 12:07:24;;;;;;;6.43;4.25;;;;;;;;;;10328798;28;20085;-61
2023/09/28 12:12:25;;;;;;;7.95;4.28;;;;;;;;;;10327861;28;20379;-58
2023/09/28 12:17:25;;;;;;;7.43;4.30;;;;;;;;;;10328512;28;20027;-61
2023/09/28 12:22:26;;;;;;;6.40;4.25;;;;;;;;;;10327712;28;20030;-61
2023/09/28 12:27:27;;;;;;;9.00;4.22;;;;;;;;;;10327690;28;20035;-59
2023/09/28 12:32:28;;;;;;;7.93;3.65;;;;;;;;;;10328468;28;20080;-55
2023/09/28 12:37:32;;;;;;;6.95;4.10;;;;;;;;;;10327315;28;20229;-59
2023/09/28 12:42:33;;;;;;;5.20;4.28;;;;;;;;;;10327548;28;20045;-61
2023/09/28 12:47:33;;;;;;;9.07;4.28;;;;;;;;;;10327177;28;20042;-59
2023/09/28 12:52:34;;;;;;;9.25;4.50;;;;;;;;;;10326991;28;20480;-59
2023/09/28 12:57:35;;;;;;;7.95;4.50;;;;;;;;;;10333114;28;20273;-60
2023/09/28 13:02:36;;;;;;;7.65;4.22;;;;;;;;;;10335433;28;20034;-61
2023/09/28 13:07:37;;;;;;;9.32;4.60;;;;;;;;;;10335137;28;20026;-60
2023/09/28 13:12:38;;;;;;;11.38;4.60;;;;;;;;;;10335016;28;20043;-61
2023/09/28 13:17:40;;;;;;;9.88;4.18;;;;;;;;;;10334539;28;20473;-61
2023/09/28 13:22:40;;;;;;;7.72;4.45;;;;;;;;;;10334449;28;20162;-60
2023/09/28 13:27:41;;;;;;;14.23;4.60;;;;;;;;;;10333896;28;20474;-56
2023/09/28 13:32:42;;;;;;;8.30;4.30;;;;;;;;;;10333755;28;20374;-60
2023/09/28 13:37:43;;;;;;;11.45;4.65;;;;;;;;;;10334580;28;20026;-61
2023/09/28 13:42:45;;;;;;;13.32;4.82;;;;;;;;;;10334272;28;20045;-57
2023/09/28 13:47:47;;;;;;;10.43;4.80;;;;;;;;;;10333734;28;20046;-61
2023/09/28 13:52:49;;;;;;;11.18;4.50;;;;;;;;;;10333825;28;20062;-61
2023/09/28 13:57:50;;;;;;;8.98;4.18;;;;;;;;;;10333791;28;20049;-61
2023/09/28 14:02:52;;;;;;;8.57;4.53;;;;;;;;;;10333502;28;20034;-59
2023/09/28 14:07:56;;;;;;;5.18;3.90;;;;;;;;;;10332543;28;20105;-54
2023/09/28 14:12:57;;;;;;;13.82;4.53;;;;;;;;;;10332472;28;20053;-59
2023/09/28 14:17:58;;;;;;;9.98;4.53;;;;;;;;;;10332674;28;20394;-58
2023/09/28 14:22:59;;;;;;;11.50;4.43;;;;;;;;;;10332335;28;20042;-56
2023/09/28 14:27:59;;;;;;;6.03;4.03;;;;;;;;;;10332778;28;20042;-58
2023/09/28 14:33:01;;;;;;;11.85;4.20;;;;;;;;;;10331577;28;20394;-57
2023/09/28 14:38:03;;;;;;;9.20;4.53;;;;;;;;;;10330891;28;20387;-61
2023/09/28 14:43:04;;;;;;;10.63;4.50;;;;;;;;;;10330511;28;20118;-53
2023/09/28 14:48:06;;;;;;;11.32;4.47;;;;;;;;;;10331113;28;20034;-54
2023/09/28 14:53:08;;;;;;;17.95;5.07;;;;;;;;;;10330563;28;20029;-61
2023/09/28 14:58:08;;;;;;;60.90;7.65;;;;;;;;;;10331088;28;20019;-58
2023/09/28 15:03:09;;;;;;;33.50;5.95;;;;;;;;;;10331537;28;20038;-59
2023/09/28 15:08:10;;;;;;;64.63;6.72;;;;;;;;;;10329525;28;20031;-59
2023/09/28 15:13:11;;;;;;;49.72;7.10;;;;;;;;;;10330040;28;20046;-61
2023/09/28 15:18:11;;;;;;;24.13;6.18;;;;;;;;;;10329334;28;20030;-60
2023/09/28 15:23:12;;;;;;;34.38;5.63;;;;;;;;;;10329724;28;20038;-63
2023/09/28 15:28:14;;;;;;;23.35;5.43;;;;;;;;;;10329648;28;20475;-62
2023/09/28 15:33:15;;;;;;;22.52;5.00;;;;;;;;;;10328584;28;20526;-63
2023/09/28 15:38:15;;;;;;;11.82;4.70;;;;;;;;;;10328725;28;20030;-62
2023/09/28 15:43:16;;;;;;;12.10;4.70;;;;;;;;;;10329632;28;20116;-62
2023/09/28 15:48:16;;;;;;;15.48;5.00;;;;;;;;;;10329245;28;20022;-61
2023/09/28 15:53:17;;;;;;;12.70;4.72;;;;;;;;;;10328667;28;20038;-62
2023/09/28 15:58:18;;;;;;;15.40;4.70;;;;;;;;;;10329511;28;20030;-62
2023/09/28 16:03:18;;;;;;;15.00;4.47;;;;;;;;;;10328886;28;20493;-61
2023/09/28 16:08:19;;;;;;;18.00;4.75;;;;;;;;;;10328580;28;20037;-62
2023/09/28 16:13:20;;;;;;;13.25;4.68;;;;;;;;;;10327977;28;20050;-60
2023/09/28 16:18:20;;;;;;;11.98;5.00;;;;;;;;;;10328628;28;20037;-62
2023/09/28 16:23:21;;;;;;;12.30;5.40;;;;;;;;;;10328322;28;20393;-62
2023/09/28 16:28:22;;;;;;;8.65;4.03;;;;;;;;;;10327830;28;20062;-61
2023/09/28 16:33:23;;;;;;;8.15;4.63;;;;;;;;;;10325955;28;20026;-63
2023/09/28 16:38:23;;;;;;;9.48;4.47;;;;;;;;;;10327571;28;20037;-62
2023/09/28 16:43:24;;;;;;;12.70;4.35;;;;;;;;;;10326944;28;20026;-60
2023/09/28 16:48:24;;;;;;;9.20;4.07;;;;;;;;;;10327269;28;20102;-59
2023/09/28 16:53:25;;;;;;;12.10;4.00;;;;;;;;;;10327422;28;20037;-62
2023/09/28 16:58:26;;;;;;;8.68;4.30;;;;;;;;;;10327085;28;20026;-61
2023/09/28 17:03:27;;;;;;;13.00;4.25;;;;;;;;;;10327443;28;20030;-62
2023/09/28 17:08:31;;;;;;;7.40;4.13;;;;;;;;;;10326813;28;20027;-61
2023/09/28 17:13:32;;;;;;;11.25;4.55;;;;;;;;;;10327171;28;20054;-61
2023/09/28 17:18:32;;;;;;;8.65;4.28;;;;;;;;;;10326383;28;20022;-61
2023/09/28 17:23:33;;;;;;;12.52;4.25;;;;;;;;;;10326152;28;20045;-62
2023/09/28 17:28:33;;;;;;;12.93;4.47;;;;;;;;;;10326094;28;20037;-62
2023/09/28 17:33:34;;;;;;;10.25;4.22;;;;;;;;;;10326892;28;20034;-62
2023/09/28 17:38:37;;;;;;;8.02;4.57;;;;;;;;;;10326359;28;20030;-60
2023/09/28 17:43:37;;;;;;;14.75;4.18;;;;;;;;;;10329187;28;20026;-62
2023/09/28 17:48:38;;;;;;;11.65;4.53;;;;;;;;;;10333597;28;20026;-62
2023/09/28 17:53:38;;;;;;;12.55;4.57;;;;;;;;;;10333274;28;20041;-63
2023/09/28 17:58:39;;;;;;;13.80;6.18;;;;;;;;;;10333274;28;20026;-63
2023/09/28 18:03:40;;;;;;;18.55;6.05;;;;;;;;;;10333255;28;20033;-62
2023/09/28 18:08:40;;;;;;;22.20;7.18;;;;;;;;;;10332755;28;20027;-62
2023/09/28 18:13:41;;;;;;;16.98;6.93;;;;;;;;;;10331442;28;20105;-61
2023/09/28 18:18:41;;;;;;;14.95;5.82;;;;;;;;;;10332275;28;20240;-61
2023/09/28 18:23:43;;;;;;;14.75;6.03;;;;;;;;;;10331524;28;20037;-67
2023/09/28 18:28:43;;;;;;;29.38;5.85;;;;;;;;;;10330909;28;20399;-67
2023/09/28 18:33:44;;;;;;;17.95;5.90;;;;;;;;;;10331626;28;20030;-66
2023/09/28 18:38:45;;;;;;;18.58;6.10;;;;;;;;;;10332065;28;20033;-66
2023/09/28 18:43:47;;;;;;;13.45;5.85;;;;;;;;;;10331325;28;20030;-66
2023/09/28 18:48:49;;;;;;;12.80;6.00;;;;;;;;;;10331428;28;20445;-67
2023/09/28 18:53:50;;;;;;;10.65;5.13;;;;;;;;;;10330849;28;20026;-66
2023/09/28 18:58:50;;;;;;;14.43;5.50;;;;;;;;;;10330766;28;20027;-66
2023/09/28 19:03:51;;;;;;;15.40;5.28;;;;;;;;;;10329646;28;20077;-68
2023/09/28 19:08:51;;;;;;;10.93;5.22;;;;;;;;;;10330619;28;20026;-67
2023/09/28 19:13:52;;;;;;;8.20;5.45;;;;;;;;;;10329094;28;20053;-63
2023/09/28 19:18:53;;;;;;;17.35;5.57;;;;;;;;;;10330116;28;20042;-66
2023/09/28 19:23:53;;;;;;;13.63;5.43;;;;;;;;;;10329955;28;20374;-65
2023/09/28 19:28:54;;;;;;;18.75;6.35;;;;;;;;;;10328309;28;20026;-63
2023/09/28 19:33:55;;;;;;;13.82;5.68;;;;;;;;;;10329053;28;20026;-63
2023/09/28 19:38:55;;;;;;;13.15;5.78;;;;;;;;;;10328578;28;20030;-61
2023/09/28 19:43:56;;;;;;;17.20;5.40;;;;;;;;;;10328560;28;20045;-63
2023/09/28 19:48:58;;;;;;;13.35;5.30;;;;;;;;;;10329869;28;20034;-64
2023/09/28 19:53:59;;;;;;;13.32;4.95;;;;;;;;;;10328566;28;20034;-63
2023/09/28 19:59:00;;;;;;;9.20;5.05;;;;;;;;;;10329160;28;20169;-64
2023/09/28 20:04:00;;;;;;;10.55;5.25;;;;;;;;;;10328882;28;20026;-65
2023/09/28 20:09:03;;;;;;;8.70;5.63;;;;;;;;;;10328100;28;20489;-57
2023/09/28 20:14:04;;;;;;;11.30;5.30;;;;;;;;;;10327399;28;20046;-61
2023/09/28 20:19:04;;;;;;;9.45;5.18;;;;;;;;;;10327898;28;20414;-62
2023/09/28 20:24:05;;;;;;;8.50;5.18;;;;;;;;;;10327443;28;20497;-62
2023/09/28 20:29:06;;;;;;;11.63;5.28;;;;;;;;;;10328382;28;20153;-63
2023/09/28 20:34:07;;;;;;;8.35;5.30;;;;;;;;;;10327527;28;20030;-64
2023/09/28 20:39:08;;;;;;;13.98;5.45;;;;;;;;;;10327057;28;20041;-61
2023/09/28 20:44:09;;;;;;;8.93;5.32;;;;;;;;;;10327358;28;20034;-63
2023/09/28 20:49:10;;;;;;;7.40;5.22;;;;;;;;;;10325708;28;20409;-63
2023/09/28 20:54:12;;;;;;;12.50;5.60;;;;;;;;;;10327659;28;20034;-65
2023/09/28 20:59:13;;;;;;;9.02;5.32;;;;;;;;;;10327454;28;20154;-65
2023/09/28 21:04:13;;;;;;;8.13;5.15;;;;;;;;;;10326475;28;20039;-62
2023/09/28 21:09:15;;;;;;;10.18;6.07;;;;;;;;;;10326613;28;20045;-60
2023/09/28 21:14:15;;;;;;;10.15;6.07;;;;;;;;;;10326736;28;20100;-63
2023/09/28 21:19:16;;;;;;;10.23;5.47;;;;;;;;;;10333363;28;20470;-64
2023/09/28 21:24:17;;;;;;;14.73;5.88;;;;;;;;;;10331134;28;20406;-64
2023/09/28 21:29:17;;;;;;;10.82;5.75;;;;;;;;;;10332427;28;20022;-58
2023/09/28 21:34:18;;;;;;;12.65;6.00;;;;;;;;;;10332285;28;20026;-68
2023/09/28 21:39:18;;;;;;;19.70;5.38;;;;;;;;;;10332716;28;20244;-66
2023/09/28 21:44:19;;;;;;;13.55;5.85;;;;;;;;;;10332744;28;20042;-62
2023/09/28 21:49:20;;;;;;;13.82;5.07;;;;;;;;;;10331526;28;20092;-63
2023/09/28 21:54:20;;;;;;;14.90;5.40;;;;;;;;;;10330808;28;20022;-67
2023/09/28 21:59:21;;;;;;;11.93;5.30;;;;;;;;;;10331023;28;20386;-67
2023/09/28 22:04:22;;;;;;;8.23;5.10;;;;;;;;;;10331846;28;20029;-60
2023/09/28 22:09:24;;;;;;;12.27;5.15;;;;;;;;;;10332667;28;20431;-63
2023/09/28 22:14:25;;;;;;;6.93;5.00;;;;;;;;;;10332550;28;20038;-67
2023/09/28 22:19:27;;;;;;;11.65;5.55;;;;;;;;;;10332351;28;20442;-66
2023/09/28 22:24:28;;;;;;;10.45;5.60;;;;;;;;;;10332432;28;20492;-60
2023/09/28 22:29:29;;;;;;;9.70;4.80;;;;;;;;;;10332231;28;20081;-66
2023/09/28 22:34:30;;;;;;;10.07;5.28;;;;;;;;;;10332155;28;20031;-67
2023/09/28 22:39:32;;;;;;;6.55;4.47;;;;;;;;;;10331913;28;20035;-66
2023/09/28 22:44:33;;;;;;;12.93;4.97;;;;;;;;;;10331702;28;20117;-64
2023/09/28 22:49:34;;;;;;;10.07;4.70;;;;;;;;;;10331498;28;20471;-66
2023/09/28 22:54:38;;;;;;;12.23;5.05;;;;;;;;;;10331400;28;20109;-62
2023/09/28 22:59:39;;;;;;;8.80;4.93;;;;;;;;;;10346514;28;20031;-65
2023/09/28 23:04:40;;;;;;;10.40;4.95;;;;;;;;;;10331559;28;20106;-65
2023/09/28 23:09:42;;;;;;;9.15;5.10;;;;;;;;;;10330768;28;20026;-58
2023/09/28 23:14:44;;;;;;;8.20;4.90;;;;;;;;;;10330485;28;20042;-61
2023/09/28 23:19:46;;;;;;;12.23;5.05;;;;;;;;;;10330831;28;20034;-64
2023/09/28 23:24:50;;;;;;;11.57;4.65;;;;;;;;;;10330158;28;20113;-62
2023/09/28 23:29:51;;;;;;;7.43;4.75;;;;;;;;;;10329997;28;20026;-62
2023/09/28 23:34:52;;;;;;;6.10;4.68;;;;;;;;;;10330638;28;20030;-58
2023/09/28 23:39:54;;;;;;;8.52;4.72;;;;;;;;;;10328596;28;20038;-64
2023/09/28 23:44:55;;;;;;;12.70;4.88;;;;;;;;;;10329920;28;20459;-58
2023/09/28 23:49:56;;;;;;;7.30;4.05;;;;;;;;;;10329188;28;20026;-65
2023/09/28 23:54:58;;;;;;;6.30;4.18;;;;;;;;;;10329599;28;20022;-61
